Smith Center, KS

6:27 PM CST on December 28, 2014 (GMT -0600)
Near 14th and K | Change Station
CLOSE
Current Station
Personal Weather Station
Location: Franklin, NE
Elevation: 1850 ft
Nearby Weather Stations

Elev 1850 ft 40.09 °N, 98.95 °W | Updated 14 seconds ago

Overcast
Overcast
32.5 °F
Feels Like 32 °F
N
0.0
Wind Variable Wind from East
Gusts 0.0 mph

Today
High -- | Low -- °F
--% Chance of Precip.
Yesterday
High -- | Low -- °F
Precip. -- in
7:55 AM 5:17 PM
First Quarter, 53% visible
Pressure 30.02 in
Visibility 10.0 miles
Clouds Overcast 5500 ft
Windchill 32 °F
Dew Point 22 °F
Humidity 65%
Rainfall 0.00 in
Snow Depth Not available.
UV 0 out of 12
Pollen .10 out of 12
Air Quality Not available.
Flu Activity Not available.
METAR KHDE 290015Z AUTO 08005KT 10SM OVC055 M04/M08 A3002 RMK AO2 T10381076

More Conditions Fewer Conditions

Pressure 30.02 in
Visibility 10.0 miles
Clouds Overcast 5500 ft
Windchill 32 °F
Dew Point 22 °F
Humidity 65%
Rainfall 0.00 in
Snow Depth Not available.
UV 0 out of 12
Pollen .10 out of 12
Air Quality Not available.
Flu Activity Not available.
METAR KHDE 290015Z AUTO 08005KT 10SM OVC055 M04/M08 A3002 RMK AO2 T10381076

More Conditions Fewer Conditions

10-Day Weather Forecast

Almanac

Astronomy

Dec. 28, 2014 Rise Set
Actual Time
Civil Twilight
Nautical Twilight
Astronomical Twilight
Moon
Length of Visible Light
Length of Day
Tomorrow will be .
, % of the Moon is Illuminated

Today's Extremes

State Highs State Lows

Community

WunderPhotos

Upload Photos

1,781,468 photos uploaded!

WunderBlogs® & News

Nearby

Air Quality

  Air Quality AQ Index Pollutant
Not available.

Snow Depth

Station Depth Elevation

Earthquake Activity

City Distance Mag. Time & Date
Minimum magnitude displayed is 2.5.

Coastal Water Temperatures

Place Temperature

Nearby Weather Stations